Boscawen, New Hampshire
Current Conditions -  °F | °C
As of 8:51 AM on Friday 19 Dec 2014 (Local Time) from KCON Reporting Station
Overcast Overcast  
Wind Chill: 22°   Ceiling: 2600
Heat Index: 30°   Visibility: 10mi
Dew Point: 22°   Wind: 8mph
Humidity: 72%   Direction: 300°WNW
Pressure: 29.93"   Gusts: NA
Location:  43.3208°N, 71.6638°W
Report Text: KCON 191351Z AUTO 30007KT 10SM OVC026 M01/M06 A2993 RMK AO2 SLP141 T10111056
Loading
Personal Weather Stations






























Interactive Weather Map New forecast layout! Learn more

10-Day Weather Forecast

Advertisements
Track Severe Weather on mobile